Time;durP1;ratioP1;P1;durP2;ratioP2;P2;SDS_P1;SDS_P2;PMS_P1;PMS_P2;Temp;Humidity;BMP_temperature;BMP_pressure;BME280_temperature;BME280_humidity;BME280_pressure;Samples;Min_cycle;Max_cycle;Signal;HPM_P1;HPM_P2
2021/10/27 00:00:30;;;;;;;14.73;5.07;;;12.60;99.90;;;;;;5070299;28;20447;-52
2021/10/27 00:02:57;;;;;;;4.40;4.00;;;12.30;99.90;;;;;;5069995;28;20503;-52
2021/10/27 00:05:23;;;;;;;7.30;4.80;;;12.40;99.90;;;;;;5071641;28;20479;-51
2021/10/27 00:07:50;;;;;;;10.63;4.47;;;12.40;99.90;;;;;;5071222;28;20446;-51
2021/10/27 00:10:18;;;;;;;5.43;4.27;;;12.40;99.90;;;;;;5070177;28;20491;-52
2021/10/27 00:12:45;;;;;;;4.90;4.17;;;12.30;99.90;;;;;;5071540;28;20920;-51
2021/10/27 00:15:15;;;;;;;5.93;3.97;;;12.50;99.90;;;;;;5071542;28;20466;-52
2021/10/27 00:17:44;;;;;;;4.97;4.20;;;12.50;99.90;;;;;;5070996;28;20432;-52
2021/10/27 00:20:11;;;;;;;5.67;4.30;;;12.50;99.90;;;;;;5070151;28;20552;-52
2021/10/27 00:22:41;;;;;;;6.57;4.37;;;12.40;99.90;;;;;;5070155;28;20445;-51
2021/10/27 00:25:11;;;;;;;7.00;4.10;;;12.40;99.90;;;;;;5071467;28;20594;-52
2021/10/27 00:27:38;;;;;;;6.13;4.20;;;12.40;99.90;;;;;;5071192;28;20431;-51
2021/10/27 00:30:06;;;;;;;4.90;4.07;;;12.30;99.90;;;;;;5070101;28;20484;-51
2021/10/27 00:32:33;;;;;;;17.47;5.93;;;12.40;99.90;;;;;;5070028;28;20461;-51
2021/10/27 00:35:03;;;;;;;5.10;4.50;;;12.40;99.90;;;;;;5071428;28;20445;-52
2021/10/27 00:37:30;;;;;;;6.17;4.33;;;12.40;99.90;;;;;;5071253;28;20434;-52
2021/10/27 00:40:00;;;;;;;5.57;4.13;;;12.20;99.90;;;;;;5070883;28;20838;-52
2021/10/27 00:42:27;;;;;;;6.53;4.40;;;12.40;99.90;;;;;;5071017;28;20466;-52
2021/10/27 00:44:53;;;;;;;7.13;3.83;;;12.40;99.90;;;;;;5071044;28;20456;-52
2021/10/27 00:47:20;;;;;;;8.47;4.60;;;12.30;99.90;;;;;;5069752;28;20486;-52
2021/10/27 00:49:48;;;;;;;5.53;4.63;;;12.30;99.90;;;;;;5069663;28;20765;-51
2021/10/27 00:52:18;;;;;;;5.83;4.80;;;12.30;99.90;;;;;;5071187;28;21007;-52
2021/10/27 00:54:48;;;;;;;6.10;4.40;;;12.30;99.90;;;;;;5071577;28;20459;-52
2021/10/27 00:57:17;;;;;;;5.30;4.67;;;12.30;99.90;;;;;;5069832;28;20456;-52
2021/10/27 00:59:47;;;;;;;8.03;4.90;;;12.30;99.90;;;;;;5070940;28;20443;-52
2021/10/27 01:02:16;;;;;;;6.53;4.40;;;12.40;99.90;;;;;;5071126;28;20439;-52
2021/10/27 01:04:46;;;;;;;9.00;4.53;;;12.10;99.90;;;;;;5071031;28;20482;-51
2021/10/27 01:07:17;;;;;;;5.90;4.33;;;12.20;99.90;;;;;;5071085;28;20532;-52
2021/10/27 01:09:44;;;;;;;7.80;4.97;;;12.10;99.90;;;;;;5070861;28;20529;-52
2021/10/27 01:12:12;;;;;;;6.03;4.80;;;12.20;99.90;;;;;;5069806;28;20904;-51
2021/10/27 01:14:40;;;;;;;5.53;4.23;;;12.20;99.90;;;;;;5070975;28;20455;-51
2021/10/27 01:17:09;;;;;;;10.90;5.20;;;12.40;99.90;;;;;;5070956;28;20532;-52
2021/10/27 01:19:45;;;;;;;7.37;4.07;;;12.30;99.90;;;;;;5070390;28;20530;-51
2021/10/27 01:22:12;;;;;;;8.20;4.60;;;12.30;99.90;;;;;;5070921;28;20440;-51
2021/10/27 01:24:39;;;;;;;7.33;5.30;;;12.50;99.90;;;;;;5070935;28;20452;-51
2021/10/27 01:27:06;;;;;;;8.10;5.03;;;12.30;99.90;;;;;;5070922;28;20979;-51
2021/10/27 01:29:32;;;;;;;6.07;5.10;;;12.30;99.90;;;;;;5069147;28;20451;-52
2021/10/27 01:31:59;;;;;;;7.83;5.40;;;12.40;99.90;;;;;;5070927;28;20443;-52
2021/10/27 01:34:26;;;;;;;4.93;4.50;;;12.40;99.90;;;;;;5069335;28;20558;-52
2021/10/27 01:36:54;;;;;;;8.67;4.87;;;12.20;99.90;;;;;;5070800;28;20498;-51
2021/10/27 01:39:21;;;;;;;5.80;4.67;;;12.50;99.90;;;;;;5069084;28;20897;-51
2021/10/27 01:41:48;;;;;;;6.07;5.50;;;12.20;99.90;;;;;;5069644;28;20955;-51
2021/10/27 01:44:15;;;;;;;10.70;6.73;;;12.30;99.90;;;;;;5069357;28;20559;-52
2021/10/27 01:46:42;;;;;;;6.57;5.37;;;12.10;99.90;;;;;;5070605;28;20478;-52
2021/10/27 01:49:11;;;;;;;4.77;4.37;;;12.20;99.90;;;;;;5072132;28;20530;-51
2021/10/27 01:51:41;;;;;;;5.40;4.80;;;12.20;99.90;;;;;;5074445;28;20416;-51
2021/10/27 01:54:09;;;;;;;5.57;4.63;;;12.20;99.90;;;;;;5072869;28;20458;-51
2021/10/27 01:56:36;;;;;;;6.07;4.37;;;12.30;99.90;;;;;;5074203;28;20514;-52
2021/10/27 01:59:03;;;;;;;5.77;5.17;;;12.20;99.90;;;;;;5072322;28;20452;-52
2021/10/27 02:01:33;;;;;;;5.97;5.37;;;12.20;99.90;;;;;;5072625;28;20475;-52
2021/10/27 02:03:59;;;;;;;6.10;5.07;;;12.20;99.90;;;;;;5073857;28;21081;-51
2021/10/27 02:06:26;;;;;;;6.17;4.60;;;12.20;99.90;;;;;;5073902;28;20470;-52
2021/10/27 02:08:53;;;;;;;5.40;4.90;;;12.30;99.90;;;;;;5072216;28;20523;-52
2021/10/27 02:11:21;;;;;;;6.83;5.23;;;12.00;99.90;;;;;;5073846;28;20435;-51
2021/10/27 02:13:48;;;;;;;8.03;5.37;;;12.30;99.90;;;;;;5072343;28;20492;-52
2021/10/27 02:16:15;;;;;;;7.50;5.73;;;12.20;99.90;;;;;;5072494;28;20801;-52
2021/10/27 02:18:42;;;;;;;6.83;5.17;;;12.20;99.90;;;;;;5073539;28;20440;-51
2021/10/27 02:21:08;;;;;;;6.50;5.00;;;12.30;99.90;;;;;;5072504;28;20495;-52
2021/10/27 02:23:35;;;;;;;6.90;5.10;;;12.20;99.90;;;;;;5073733;28;20449;-51
2021/10/27 02:26:02;;;;;;;7.07;5.27;;;12.30;99.90;;;;;;5072909;28;20490;-51
2021/10/27 02:28:35;;;;;;;6.23;5.50;;;12.20;99.90;;;;;;5073262;28;20551;-52
2021/10/27 02:31:02;;;;;;;8.03;6.00;;;12.20;99.90;;;;;;5073220;28;20547;-51
2021/10/27 02:33:29;;;;;;;6.27;5.50;;;12.20;99.90;;;;;;5073462;28;20468;-51
2021/10/27 02:35:56;;;;;;;6.60;5.40;;;12.20;99.90;;;;;;5073521;28;20497;-51
2021/10/27 02:38:22;;;;;;;10.20;5.40;;;12.20;99.90;;;;;;5071736;28;21047;-52
2021/10/27 02:40:49;;;;;;;6.17;5.57;;;12.10;99.90;;;;;;5073943;28;20432;-52
2021/10/27 02:43:18;;;;;;;6.57;5.40;;;12.50;99.90;;;;;;5073161;28;20535;-52
2021/10/27 02:45:46;;;;;;;11.00;6.37;;;12.30;99.90;;;;;;5073172;28;20503;-52
2021/10/27 02:48:14;;;;;;;9.47;6.00;;;12.10;99.90;;;;;;5071543;28;20552;-52
2021/10/27 02:50:41;;;;;;;8.37;6.20;;;12.20;99.90;;;;;;5073191;28;20451;-52
2021/10/27 02:53:08;;;;;;;8.80;5.50;;;12.30;99.90;;;;;;5073130;28;21067;-51
2021/10/27 02:55:37;;;;;;;7.27;5.23;;;12.30;99.90;;;;;;5073056;28;20447;-52
2021/10/27 02:58:04;;;;;;;9.20;6.17;;;12.30;99.90;;;;;;5072947;28;20486;-52
2021/10/27 03:00:31;;;;;;;7.50;5.60;;;12.30;99.90;;;;;;5071966;28;20407;-52
2021/10/27 03:02:59;;;;;;;6.07;5.47;;;12.20;99.90;;;;;;5072688;28;20451;-52
2021/10/27 03:05:26;;;;;;;9.90;6.07;;;12.40;99.90;;;;;;5073122;28;20524;-52
2021/10/27 03:07:52;;;;;;;10.13;7.00;;;12.30;99.90;;;;;;5071169;28;20845;-52
2021/10/27 03:10:19;;;;;;;6.20;5.60;;;12.40;99.90;;;;;;5072784;28;20471;-52
2021/10/27 03:12:46;;;;;;;8.90;5.70;;;12.10;99.90;;;;;;5072712;28;20445;-52
2021/10/27 03:15:13;;;;;;;9.70;6.20;;;12.30;99.90;;;;;;5072703;28;20921;-51
2021/10/27 03:17:40;;;;;;;8.30;6.23;;;12.20;99.90;;;;;;5070965;28;20481;-51
2021/10/27 03:20:09;;;;;;;8.03;5.60;;;12.20;99.90;;;;;;5072727;28;20522;-51
2021/10/27 03:22:36;;;;;;;8.57;5.70;;;12.20;99.90;;;;;;5072299;28;20899;-52
2021/10/27 03:25:04;;;;;;;8.33;6.83;;;12.30;99.90;;;;;;5071409;28;20976;-51
2021/10/27 03:27:31;;;;;;;9.33;5.83;;;12.30;99.90;;;;;;5071020;28;20511;-52
2021/10/27 03:29:57;;;;;;;6.93;6.23;;;12.30;99.90;;;;;;5070721;28;20451;-51
2021/10/27 03:32:24;;;;;;;8.90;6.83;;;12.00;99.90;;;;;;5072432;28;20781;-51
2021/10/27 03:34:51;;;;;;;8.03;6.70;;;12.30;99.90;;;;;;5072374;28;20547;-51
2021/10/27 03:37:19;;;;;;;8.10;5.43;;;12.30;99.90;;;;;;5072374;28;20951;-51
2021/10/27 03:39:46;;;;;;;6.37;5.40;;;12.30;99.90;;;;;;5072169;28;20439;-51
2021/10/27 03:42:13;;;;;;;11.10;7.13;;;12.30;99.90;;;;;;5070860;28;20544;-51
2021/10/27 03:44:40;;;;;;;9.40;7.07;;;12.30;99.90;;;;;;5072144;28;20531;-52
2021/10/27 03:47:06;;;;;;;7.13;6.03;;;12.30;99.90;;;;;;5072052;28;20482;-51
2021/10/27 03:49:33;;;;;;;7.63;5.83;;;12.00;99.90;;;;;;5071765;28;21004;-51
2021/10/27 03:52:01;;;;;;;6.90;6.30;;;12.30;99.90;;;;;;5070670;28;20976;-51
2021/10/27 03:54:30;;;;;;;9.30;5.77;;;12.30;99.90;;;;;;5071892;28;20451;-52
2021/10/27 03:56:59;;;;;;;13.20;5.53;;;12.20;99.90;;;;;;5071905;28;21005;-51
2021/10/27 03:59:28;;;;;;;8.93;5.83;;;12.30;99.90;;;;;;5071491;28;20466;-51
2021/10/27 04:01:54;;;;;;;9.27;5.93;;;12.30;99.90;;;;;;5071740;28;20434;-52
2021/10/27 04:04:21;;;;;;;7.20;5.53;;;12.30;99.90;;;;;;5075826;22;21102;-48
2021/10/27 04:06:48;;;;;;;7.60;6.83;;;12.30;99.90;;;;;;5052296;28;20558;-47
2021/10/27 04:09:15;;;;;;;8.97;6.93;;;12.30;99.90;;;;;;5033671;28;20445;-48
2021/10/27 04:11:43;;;;;;;8.67;5.97;;;12.30;99.90;;;;;;5033730;28;20529;-47
2021/10/27 04:14:10;;;;;;;6.73;5.40;;;12.50;99.90;;;;;;5033846;28;20507;-48
2021/10/27 04:16:37;;;;;;;8.93;6.23;;;12.40;99.90;;;;;;5033819;28;21029;-48
2021/10/27 04:19:03;;;;;;;7.47;6.47;;;12.40;99.90;;;;;;5051478;28;20435;-48
2021/10/27 04:21:30;;;;;;;9.23;6.50;;;12.30;99.90;;;;;;5052082;28;20773;-48
2021/10/27 04:23:57;;;;;;;9.03;6.00;;;12.30;99.90;;;;;;5033679;28;20547;-48
2021/10/27 04:26:24;;;;;;;9.63;6.10;;;12.30;99.90;;;;;;5051593;28;20412;-49
2021/10/27 04:28:53;;;;;;;8.23;7.40;;;12.20;99.90;;;;;;5051286;28;20526;-48
2021/10/27 04:31:20;;;;;;;7.43;6.43;;;12.40;99.90;;;;;;5052243;28;20440;-48
2021/10/27 04:33:46;;;;;;;6.80;6.10;;;12.40;99.90;;;;;;5051902;28;20464;-48
2021/10/27 04:36:16;;;;;;;9.70;7.53;;;12.40;99.90;;;;;;5033898;28;20455;-48
2021/10/27 04:38:43;;;;;;;10.23;6.70;;;12.60;99.90;;;;;;5051157;28;20437;-48
2021/10/27 04:41:10;;;;;;;8.10;5.50;;;12.40;99.90;;;;;;5036745;28;20448;-48
2021/10/27 04:43:37;;;;;;;7.53;6.20;;;12.40;99.90;;;;;;5051620;28;20487;-47
2021/10/27 04:46:05;;;;;;;9.60;7.27;;;12.40;99.90;;;;;;5051438;28;20522;-48
2021/10/27 04:48:32;;;;;;;7.60;6.57;;;12.60;99.90;;;;;;5032887;28;20481;-48
2021/10/27 04:51:02;;;;;;;10.73;6.97;;;12.20;99.90;;;;;;5051354;28;20481;-48
2021/10/27 04:53:29;;;;;;;9.63;7.37;;;12.50;99.90;;;;;;5051260;28;20461;-48
2021/10/27 04:55:55;;;;;;;15.07;8.40;;;12.70;99.90;;;;;;5051409;28;20434;-48
2021/10/27 04:58:22;;;;;;;8.23;7.30;;;12.40;99.90;;;;;;5051017;28;20929;-49
2021/10/27 05:00:49;;;;;;;11.00;6.70;;;12.50;99.90;;;;;;5033517;28;20545;-49
2021/10/27 05:03:17;;;;;;;13.13;6.20;;;12.40;99.90;;;;;;5051716;28;20439;-48
2021/10/27 05:05:48;;;;;;;11.87;7.77;;;12.50;99.90;;;;;;5051389;28;20514;-49
2021/10/27 05:08:18;;;;;;;12.13;7.63;;;12.50;99.90;;;;;;5032304;28;20558;-48
2021/10/27 05:10:44;;;;;;;10.73;7.23;;;12.60;99.90;;;;;;5051151;28;20472;-48
2021/10/27 05:13:13;;;;;;;13.03;7.50;;;12.50;99.90;;;;;;5050964;28;20445;-48
2021/10/27 05:15:40;;;;;;;9.53;6.87;;;12.70;99.90;;;;;;5050869;28;20531;-48
2021/10/27 05:18:07;;;;;;;8.00;6.43;;;12.50;99.90;;;;;;5050188;28;20436;-48
2021/10/27 05:20:35;;;;;;;17.63;7.00;;;12.70;99.90;;;;;;5032588;28;20822;-48
2021/10/27 05:23:02;;;;;;;9.40;6.50;;;12.40;99.90;;;;;;5051191;28;20447;-48
2021/10/27 05:25:28;;;;;;;8.33;7.20;;;12.40;99.90;;;;;;5054533;28;21010;-48
2021/10/27 05:27:55;;;;;;;8.30;6.47;;;12.60;99.90;;;;;;5054202;28;20595;-48
2021/10/27 05:30:22;;;;;;;11.93;8.40;;;12.60;99.90;;;;;;5054712;28;20748;-48
2021/10/27 05:32:49;;;;;;;15.90;7.30;;;12.50;99.90;;;;;;5053653;28;20415;-49
2021/10/27 05:35:15;;;;;;;8.73;6.30;;;12.50;99.90;;;;;;5036032;28;20475;-49
2021/10/27 05:37:44;;;;;;;9.03;6.27;;;12.50;99.90;;;;;;5054453;28;20797;-50
2021/10/27 05:40:11;;;;;;;7.97;6.80;;;12.10;99.90;;;;;;5036668;28;20487;-48
2021/10/27 05:42:39;;;;;;;10.13;7.13;;;12.30;99.90;;;;;;5036472;28;20522;-49
2021/10/27 05:45:10;;;;;;;9.87;6.83;;;12.50;99.90;;;;;;5054212;28;20477;-49
2021/10/27 05:47:42;;;;;;;11.00;7.50;;;12.50;99.90;;;;;;5053750;28;20484;-50
2021/10/27 05:50:37;;;;;;;10.07;7.10;;;12.50;99.90;;;;;;5035810;28;20453;-49
2021/10/27 05:55:49;;;;;;;7.40;6.27;;;12.50;99.90;;;;;;5054867;28;20429;-48
2021/10/27 05:58:16;;;;;;;10.23;6.07;;;12.40;99.90;;;;;;5053503;28;20491;-49
2021/10/27 06:00:45;;;;;;;10.77;7.00;;;12.50;99.90;;;;;;5056767;28;20442;-49
2021/10/27 06:03:13;;;;;;;11.00;7.53;;;12.60;99.90;;;;;;5035721;28;20453;-48
2021/10/27 06:05:40;;;;;;;9.73;7.10;;;12.60;99.90;;;;;;5036068;28;20867;-48
2021/10/27 06:08:10;;;;;;;9.80;7.03;;;12.40;99.90;;;;;;5053276;28;20585;-48
2021/10/27 06:10:37;;;;;;;9.23;6.20;;;12.60;99.90;;;;;;5053689;28;20437;-48
2021/10/27 06:13:06;;;;;;;10.70;7.57;;;12.60;99.90;;;;;;5035455;28;20452;-48
2021/10/27 06:15:33;;;;;;;8.23;6.63;;;12.80;99.90;;;;;;5035509;28;20455;-48
2021/10/27 06:18:01;;;;;;;9.43;5.83;;;12.60;99.90;;;;;;5053525;28;20528;-48
2021/10/27 06:20:28;;;;;;;8.23;5.83;;;12.80;99.90;;;;;;5054269;28;20438;-48
2021/10/27 06:22:56;;;;;;;10.07;6.07;;;12.40;99.90;;;;;;5053553;28;20438;-48
2021/10/27 06:25:25;;;;;;;7.87;6.30;;;12.70;99.90;;;;;;5053632;28;20465;-49
2021/10/27 06:27:59;;;;;;;7.80;5.70;;;12.70;99.90;;;;;;5052298;28;20487;-49
2021/10/27 06:30:29;;;;;;;8.27;6.00;;;12.40;99.90;;;;;;5053483;28;20437;-48
2021/10/27 06:33:03;;;;;;;7.70;6.23;;;12.80;99.90;;;;;;5034984;28;20930;-48
2021/10/27 06:35:32;;;;;;;12.33;5.70;;;12.70;99.90;;;;;;5053280;28;20441;-48
2021/10/27 06:46:36;;;;;;;9.47;6.17;;;12.80;99.90;;;;;;5052966;28;20943;-49
2021/10/27 06:49:03;;;;;;;7.50;4.60;;;13.00;99.90;;;;;;5052028;28;20472;-48
2021/10/27 06:51:30;;;;;;;6.60;5.53;;;12.80;99.90;;;;;;5034920;28;20528;-49
2021/10/27 06:53:57;;;;;;;5.87;5.23;;;12.80;99.90;;;;;;5034950;28;20558;-48
2021/10/27 06:56:28;;;;;;;8.67;5.20;;;12.80;99.90;;;;;;5052900;28;20451;-49
2021/10/27 06:59:01;;;;;;;6.43;5.23;;;12.80;99.90;;;;;;5052604;28;20434;-49
2021/10/27 07:01:32;;;;;;;9.47;5.83;;;12.90;99.90;;;;;;5035427;28;20483;-48
2021/10/27 07:07:17;;;;;;;10.07;5.40;;;12.70;99.90;;;;;;5034445;28;20481;-49
2021/10/27 07:15:20;;;;;;;12.17;5.87;;;13.00;99.90;;;;;;5034339;28;20479;-48
2021/10/27 07:17:51;;;;;;;11.07;6.27;;;13.00;99.90;;;;;;5034604;28;20485;-48
2021/10/27 07:20:19;;;;;;;16.23;6.07;;;13.30;99.90;;;;;;5053591;28;20437;-51
2021/10/27 07:22:46;;;;;;;8.50;7.37;;;13.10;99.90;;;;;;5052235;28;20537;-50
2021/10/27 07:25:15;;;;;;;8.17;5.37;;;13.10;99.90;;;;;;5034050;28;20471;-49
2021/10/27 07:27:43;;;;;;;6.70;5.50;;;13.30;99.90;;;;;;5052070;28;20475;-50
2021/10/27 07:30:11;;;;;;;11.00;6.17;;;13.30;99.90;;;;;;5051377;28;20917;-48
2021/10/27 07:32:38;;;;;;;10.93;5.97;;;13.10;99.90;;;;;;5034125;28;20519;-48
2021/10/27 07:35:16;;;;;;;8.20;5.97;;;13.20;99.90;;;;;;5051944;28;20465;-56
2021/10/27 07:40:38;;;;;;;10.03;5.00;;;13.60;99.90;;;;;;5052209;28;20950;-49
2021/10/27 07:43:09;;;;;;;10.47;5.43;;;13.30;99.90;;;;;;5051713;28;20438;-50
2021/10/27 07:45:37;;;;;;;9.30;5.70;;;13.40;99.90;;;;;;5051473;28;20440;-49
2021/10/27 07:48:05;;;;;;;11.90;5.83;;;13.60;99.90;;;;;;5033061;28;20515;-49
2021/10/27 07:50:34;;;;;;;6.93;4.90;;;13.50;99.90;;;;;;5052157;28;20475;-48
2021/10/27 07:53:02;;;;;;;11.70;5.73;;;13.60;99.90;;;;;;5052038;28;20637;-48
2021/10/27 07:55:31;;;;;;;7.40;5.53;;;13.60;99.90;;;;;;5051949;28;20488;-48
2021/10/27 07:57:58;;;;;;;17.07;6.03;;;13.60;99.90;;;;;;5051628;28;20838;-49
2021/10/27 08:00:29;;;;;;;9.10;5.50;;;13.20;99.90;;;;;;5033892;28;20888;-49
2021/10/27 08:03:01;;;;;;;10.10;4.80;;;13.70;99.90;;;;;;5051660;28;20429;-49
2021/10/27 08:05:30;;;;;;;9.73;4.00;;;14.20;99.90;;;;;;5033633;28;20527;-48
2021/10/27 08:07:58;;;;;;;14.30;5.07;;;13.30;99.90;;;;;;5051912;28;20493;-50
2021/10/27 08:10:26;;;;;;;10.13;4.50;;;13.80;99.90;;;;;;5051429;28;20530;-49
2021/10/27 08:12:53;;;;;;;10.00;6.17;;;13.90;99.90;;;;;;5051892;28;20804;-49
2021/10/27 08:15:20;;;;;;;7.77;5.13;;;13.60;99.90;;;;;;5051481;28;20496;-50
2021/10/27 08:17:48;;;;;;;10.60;5.30;;;14.30;99.90;;;;;;5032886;28;20462;-49
2021/10/27 08:20:17;;;;;;;11.60;5.80;;;14.00;99.90;;;;;;5051309;28;20466;-49
2021/10/27 08:22:47;;;;;;;7.33;4.73;;;14.00;99.90;;;;;;5051214;28;20421;-49
2021/10/27 08:25:22;;;;;;;11.00;5.93;;;14.10;99.90;;;;;;5051070;28;20513;-48
2021/10/27 08:27:50;;;;;;;7.03;4.50;;;13.90;99.90;;;;;;5032389;28;20837;-48
2021/10/27 08:30:19;;;;;;;6.03;5.20;;;14.10;99.90;;;;;;5032859;28;20469;-49
2021/10/27 08:32:53;;;;;;;10.50;7.07;;;14.20;99.90;;;;;;5051182;28;20474;-49
2021/10/27 08:35:24;;;;;;;9.37;5.73;;;14.20;99.90;;;;;;5033230;28;20550;-50
2021/10/27 08:37:51;;;;;;;9.87;6.37;;;14.00;99.90;;;;;;5052502;28;20454;-49
2021/10/27 08:40:19;;;;;;;12.93;6.50;;;14.30;99.90;;;;;;5032707;28;20446;-50
2021/10/27 08:42:47;;;;;;;7.63;4.93;;;14.50;99.90;;;;;;5051100;28;20768;-50
2021/10/27 08:45:17;;;;;;;7.80;5.20;;;14.30;99.90;;;;;;5051134;28;20450;-50
2021/10/27 08:47:47;;;;;;;6.07;4.73;;;14.30;99.90;;;;;;5050326;28;20547;-48
2021/10/27 08:50:20;;;;;;;7.17;4.67;;;14.30;99.90;;;;;;5051437;28;20446;-49
2021/10/27 08:52:47;;;;;;;7.33;4.97;;;14.30;99.90;;;;;;5051538;28;20999;-48
2021/10/27 08:55:15;;;;;;;9.67;4.57;;;14.30;99.90;;;;;;5051011;28;20516;-51
2021/10/27 08:57:44;;;;;;;15.30;5.53;;;14.30;99.90;;;;;;5050191;28;20500;-49
2021/10/27 09:00:15;;;;;;;10.17;5.00;;;14.30;99.90;;;;;;5036733;28;20845;-49
2021/10/27 09:02:58;;;;;;;5.53;4.20;;;14.40;99.90;;;;;;5054992;28;20442;-49
2021/10/27 09:33:34;;;;;;;7.20;4.20;;;14.70;99.90;;;;;;5055005;28;20780;-49
2021/10/27 09:34:36;;;;;;;8.20;4.70;;;14.50;99.90;;;;;;4957138;28;20509;-49
2021/10/27 09:37:27;;;;;;;8.87;4.80;;;14.90;99.90;;;;;;5041165;28;20470;-48
2021/10/27 10:05:28;;;;;;;9.37;4.00;;;15.80;99.90;;;;;;5068413;22;20493;-51
2021/10/27 10:07:55;;;;;;;5.63;3.80;;;15.80;99.90;;;;;;5048606;28;21002;-52
2021/10/27 10:10:22;;;;;;;6.83;4.20;;;15.90;99.90;;;;;;5033580;28;20442;-51
2021/10/27 10:12:53;;;;;;;8.60;4.13;;;15.90;99.90;;;;;;5033854;28;20997;-52
2021/10/27 10:15:23;;;;;;;6.93;3.37;;;15.80;99.90;;;;;;5033854;28;20878;-51
2021/10/27 10:17:52;;;;;;;9.77;4.07;;;16.00;99.90;;;;;;5031669;28;20486;-50
2021/10/27 10:20:20;;;;;;;6.53;3.87;;;16.00;99.90;;;;;;5033790;28;20933;-52
2021/10/27 10:22:47;;;;;;;8.70;4.07;;;16.00;99.90;;;;;;5033271;28;20879;-50
2021/10/27 10:25:34;;;;;;;5.93;4.77;;;16.00;99.90;;;;;;5032054;28;20508;-51
2021/10/27 10:28:19;;;;;;;8.33;4.00;;;16.10;99.90;;;;;;5032865;28;20494;-51
2021/10/27 10:30:50;;;;;;;6.67;3.83;;;16.20;99.90;;;;;;5032028;28;20461;-51
2021/10/27 10:33:18;;;;;;;9.03;4.23;;;16.20;99.90;;;;;;5031853;28;20462;-51
2021/10/27 10:35:52;;;;;;;7.23;4.43;;;16.20;99.90;;;;;;5033232;28;20403;-51
2021/10/27 10:38:31;;;;;;;11.67;4.33;;;16.30;99.90;;;;;;5032568;28;20513;-51
2021/10/27 10:44:07;;;;;;;8.90;5.17;;;16.40;99.90;;;;;;5022753;28;20467;-52
2021/10/27 11:22:45;;;;;;;8.50;4.40;;;16.40;99.90;;;;;;5029284;28;20508;-52
2021/10/27 11:25:18;;;;;;;5.50;4.33;;;16.50;99.90;;;;;;5031320;28;20507;-51
2021/10/27 11:41:56;;;;;;;6.37;4.90;;;16.50;99.90;;;;;;5013392;28;20456;-52
2021/10/27 11:44:43;;;;;;;10.30;3.90;;;16.40;99.90;;;;;;5030493;28;20451;-52
2021/10/27 11:47:10;;;;;;;4.57;3.40;;;16.40;99.90;;;;;;5030328;28;20545;-50
2021/10/27 11:49:41;;;;;;;7.10;4.27;;;16.40;99.90;;;;;;5010070;28;20806;-51
2021/10/27 11:52:09;;;;;;;7.07;3.20;;;16.40;99.90;;;;;;5017859;28;20452;-50
2021/10/27 11:54:40;;;;;;;6.87;3.60;;;16.40;99.90;;;;;;5031498;28;20502;-51
2021/10/27 11:57:11;;;;;;;5.23;3.73;;;16.40;99.90;;;;;;5031115;28;20475;-51
2021/10/27 11:59:44;;;;;;;5.33;4.00;;;16.40;99.90;;;;;;5031024;28;20483;-51
2021/10/27 12:02:10;;;;;;;8.83;3.93;;;16.50;99.90;;;;;;5031003;28;20435;-51
2021/10/27 12:04:40;;;;;;;8.77;4.73;;;16.50;99.90;;;;;;5031360;28;21008;-52
2021/10/27 12:07:16;;;;;;;7.93;4.13;;;16.50;99.90;;;;;;5031831;28;20455;-52
2021/10/27 12:12:57;;;;;;;8.07;4.27;;;16.40;99.90;;;;;;5030592;28;20476;-50
2021/10/27 12:15:50;;;;;;;7.30;4.60;;;16.40;99.90;;;;;;5029340;28;20539;-50
2021/10/27 12:18:17;;;;;;;6.90;4.13;;;16.40;99.90;;;;;;5031192;28;20908;-51
2021/10/27 12:20:47;;;;;;;5.97;4.10;;;16.40;99.90;;;;;;5031352;28;20527;-51
2021/10/27 12:23:29;;;;;;;5.40;4.10;;;16.30;99.90;;;;;;5031283;28;20432;-51
2021/10/27 12:26:08;;;;;;;5.90;3.90;;;16.30;99.90;;;;;;5030728;28;20961;-52
2021/10/27 12:28:36;;;;;;;8.67;6.60;;;16.30;99.90;;;;;;5030411;28;20429;-51
2021/10/27 12:31:17;;;;;;;10.00;6.70;;;16.30;99.90;;;;;;5029777;28;20498;-51
2021/10/27 12:33:45;;;;;;;8.20;5.20;;;16.30;99.90;;;;;;5030552;28;20940;-49
2021/10/27 12:36:24;;;;;;;6.93;5.53;;;16.30;99.90;;;;;;5030623;28;20447;-51
2021/10/27 12:39:15;;;;;;;11.10;6.30;;;16.30;99.90;;;;;;5030284;28;20447;-51
2021/10/27 12:41:44;;;;;;;8.67;5.33;;;16.40;99.90;;;;;;5030863;28;21004;-50
2021/10/27 12:44:24;;;;;;;11.03;6.57;;;16.30;99.90;;;;;;5031399;28;20456;-51
2021/10/27 12:47:08;;;;;;;10.50;6.40;;;16.30;99.90;;;;;;5030361;28;20435;-52
2021/10/27 12:49:35;;;;;;;10.13;7.13;;;16.30;99.90;;;;;;5028963;28;20578;-52
2021/10/27 12:52:25;;;;;;;8.83;6.57;;;16.30;99.90;;;;;;5030368;28;20471;-51
2021/10/27 12:55:06;;;;;;;10.50;5.90;;;16.30;99.90;;;;;;5030151;28;20466;-52
2021/10/27 12:57:47;;;;;;;7.57;5.00;;;16.30;99.90;;;;;;5029371;28;20830;-51
2021/10/27 13:00:16;;;;;;;10.03;4.93;;;16.30;99.90;;;;;;5029400;28;20549;-52
2021/10/27 13:02:51;;;;;;;9.80;5.40;;;16.20;99.90;;;;;;5030638;28;20987;-52
2021/10/27 13:05:29;;;;;;;9.33;5.53;;;16.20;99.90;;;;;;5030544;28;20983;-51
2021/10/27 13:08:04;;;;;;;10.83;5.93;;;16.20;99.90;;;;;;5030465;28;20442;-53
2021/10/27 13:10:47;;;;;;;8.20;5.00;;;16.10;99.90;;;;;;5030810;28;20557;-52
2021/10/27 13:13:28;;;;;;;9.20;4.83;;;16.10;99.90;;;;;;5028896;28;20524;-51
2021/10/27 13:16:11;;;;;;;10.70;5.50;;;16.10;99.90;;;;;;5030475;28;20484;-52
2021/10/27 13:18:56;;;;;;;6.60;4.83;;;16.10;99.90;;;;;;5029673;28;20507;-50
2021/10/27 13:21:39;;;;;;;10.37;5.33;;;16.00;99.90;;;;;;5030593;28;20482;-51
2021/10/27 13:29:47;;;;;;;10.90;5.10;;;16.00;99.90;;;;;;5029733;28;21038;-52
2021/10/27 13:32:16;;;;;;;9.67;5.03;;;16.00;99.90;;;;;;5029979;28;20463;-52
2021/10/27 13:34:43;;;;;;;9.33;5.27;;;16.00;99.90;;;;;;5030627;28;20448;-52
2021/10/27 13:37:10;;;;;;;8.90;4.63;;;16.00;99.90;;;;;;5029635;28;20440;-53
2021/10/27 13:39:39;;;;;;;7.60;4.60;;;16.00;99.90;;;;;;5030151;28;20780;-52
2021/10/27 13:42:12;;;;;;;8.33;4.43;;;16.00;99.90;;;;;;5030174;28;20455;-52
2021/10/27 13:44:46;;;;;;;7.47;5.57;;;16.00;99.90;;;;;;5031973;28;20634;-52
2021/10/27 13:47:25;;;;;;;10.10;4.30;;;16.00;99.90;;;;;;5033913;28;20465;-51
2021/10/27 13:57:43;;;;;;;6.37;4.73;;;16.00;99.90;;;;;;5033821;28;20469;-53
2021/10/27 13:58:45;;;;;;;9.27;5.10;;;15.70;99.90;;;;;;5032363;28;20913;-51
2021/10/27 14:06:45;;;;;;;6.40;5.70;;;16.00;99.90;;;;;;5033414;28;20436;-51
2021/10/27 14:09:18;;;;;;;6.30;4.60;;;15.60;99.90;;;;;;5033229;28;20478;-51
2021/10/27 14:11:59;;;;;;;6.90;5.33;;;16.20;99.90;;;;;;5032812;28;20933;-51
2021/10/27 14:14:34;;;;;;;7.63;5.27;;;16.00;99.90;;;;;;5033472;28;20459;-54
2021/10/27 14:22:59;;;;;;;8.90;5.03;;;16.00;99.90;;;;;;5033077;28;20462;-52
2021/10/27 14:59:14;;;;;;;10.13;5.07;;;15.80;99.90;;;;;;5031683;28;20947;-51
2021/10/27 15:21:10;;;;;;;14.27;6.20;;;15.60;99.90;;;;;;5032284;28;20432;-50
2021/10/27 15:23:45;;;;;;;5.80;5.30;;;15.60;99.90;;;;;;5032021;28;20505;-51
2021/10/27 15:29:06;;;;;;;6.40;5.20;;;15.60;99.90;;;;;;5031221;28;20455;-52
2021/10/27 15:31:42;;;;;;;7.63;6.40;;;15.60;99.90;;;;;;5031814;28;20437;-52
2021/10/27 15:34:34;;;;;;;6.90;6.20;;;15.60;99.90;;;;;;5031890;28;20570;-51
2021/10/27 15:37:16;;;;;;;8.40;6.10;;;15.60;99.90;;;;;;5031245;28;20889;-52
2021/10/27 15:45:21;;;;;;;10.30;6.00;;;15.50;99.90;;;;;;5020557;28;20463;-52
2021/10/27 15:50:41;;;;;;;19.00;6.20;;;15.30;99.90;;;;;;5031544;28;20979;-52
2021/10/27 15:53:08;;;;;;;9.97;5.00;;;15.50;99.90;;;;;;5031046;28;20782;-52
2021/10/27 15:55:36;;;;;;;11.47;6.67;;;15.50;99.90;;;;;;5030357;28;20472;-51
2021/10/27 15:58:03;;;;;;;8.20;6.00;;;15.50;99.90;;;;;;5031855;28;20431;-52
2021/10/27 16:00:30;;;;;;;8.67;7.77;;;15.50;99.90;;;;;;5030044;28;21017;-52
2021/10/27 16:02:57;;;;;;;9.40;6.23;;;15.60;99.90;;;;;;5031469;28;20474;-51
2021/10/27 16:05:26;;;;;;;12.83;10.60;;;15.50;99.90;;;;;;5067447;22;20578;-48
2021/10/27 16:07:57;;;;;;;12.60;8.80;;;15.50;99.90;;;;;;5050381;28;20438;-50
2021/10/27 16:10:24;;;;;;;10.30;7.17;;;15.50;99.90;;;;;;5050811;28;20492;-48
2021/10/27 16:12:51;;;;;;;11.50;6.80;;;15.50;99.90;;;;;;5051601;28;20436;-49
2021/10/27 16:15:24;;;;;;;10.57;7.27;;;15.50;99.90;;;;;;5051113;28;20482;-50
2021/10/27 16:17:52;;;;;;;14.43;10.30;;;15.50;99.90;;;;;;5050894;28;20446;-49
2021/10/27 16:20:19;;;;;;;12.13;6.97;;;15.20;99.90;;;;;;5050698;28;20422;-50
2021/10/27 16:22:46;;;;;;;7.63;6.80;;;15.50;99.90;;;;;;5033191;28;20434;-50
2021/10/27 16:25:14;;;;;;;10.43;6.83;;;15.50;99.90;;;;;;5050993;28;20576;-50
2021/10/27 16:27:41;;;;;;;10.50;7.40;;;15.50;99.90;;;;;;5050450;28;20496;-50
2021/10/27 16:30:09;;;;;;;8.43;6.30;;;15.50;99.90;;;;;;5051295;28;20860;-50
2021/10/27 16:32:35;;;;;;;7.40;6.33;;;15.50;99.90;;;;;;5052549;28;20484;-49
2021/10/27 16:35:06;;;;;;;8.53;7.00;;;15.50;99.90;;;;;;5051955;28;20488;-48